Similk Beach, Washington
Current Conditions -  °F | °C
As of 3:56 AM on Friday 19 Dec 2014 (Local Time) from KNUW Reporting Station
Broken Clouds Broken Clouds  
Wind Chill: 51°   Ceiling: 1900
Heat Index: 51°   Visibility: 10mi
Dew Point: 44°   Wind: 15mph
Humidity: 77%   Direction: 150°SSE
Pressure: 29.77"   Gusts: 25mph
Location:  48.4652°N, 122.617°W
Report Text: KNUW 191156Z 15013G22KT 10SM SCT015 BKN019 BKN027 11/07 A2977 RMK AO2 SLP086 60000 T01060067 10117 20100 51015 VISNO E $
Loading
Personal Weather Stations






























Interactive Weather Map New forecast layout! Learn more

10-Day Weather Forecast

Advertisements
Track Severe Weather on mobile